Time;durP1;ratioP1;P1;durP2;ratioP2;P2;SDS_P1;SDS_P2;PMS_P1;PMS_P2;Temp;Humidity;BMP_temperature;BMP_pressure;BME280_temperature;BME280_humidity;BME280_pressure;Samples;Min_cycle;Max_cycle;Signal;HPM_P1;HPM_P2
2022/01/25 00:09:16;;;;;;;49.70;27.17;;;5.70;99.90;;;;;;5008812;28;20278;-79
2022/01/25 00:27:47;;;;;;;50.50;28.10;;;5.70;99.90;;;;;;5007072;28;20224;-82
2022/01/25 00:30:26;;;;;;;57.73;29.03;;;5.70;99.90;;;;;;5008879;28;21091;-80
2022/01/25 00:32:51;;;;;;;59.10;30.03;;;5.60;99.90;;;;;;4994488;28;20175;-79
2022/01/25 00:35:17;;;;;;;52.47;29.20;;;5.60;99.90;;;;;;5007339;28;20560;-81
2022/01/25 00:37:43;;;;;;;56.30;30.43;;;5.60;99.90;;;;;;4986533;28;20364;-80
2022/01/25 00:40:09;;;;;;;55.80;30.20;;;5.60;99.90;;;;;;5001041;28;20187;-80
2022/01/25 00:42:34;;;;;;;57.13;30.63;;;5.60;99.90;;;;;;4976007;28;20285;-79
2022/01/25 00:45:00;;;;;;;57.17;30.40;;;5.60;99.90;;;;;;4992613;28;20663;-80
2022/01/25 00:47:26;;;;;;;56.63;30.87;;;5.60;99.90;;;;;;4970218;28;20231;-82
2022/01/25 00:49:53;;;;;;;58.30;30.60;;;5.60;99.90;;;;;;4992731;28;20561;-81
2022/01/25 00:55:04;;;;;;;57.93;29.90;;;5.50;99.90;;;;;;5010460;28;20214;-82
2022/01/25 00:57:29;;;;;;;59.10;30.30;;;5.50;99.90;;;;;;4991766;28;20262;-81
2022/01/25 00:59:55;;;;;;;61.60;32.13;;;5.50;99.90;;;;;;4988601;28;20239;-81
2022/01/25 01:02:22;;;;;;;58.63;29.77;;;5.50;99.90;;;;;;4993826;28;20223;-80
2022/01/25 01:04:48;;;;;;;58.63;32.10;;;5.40;99.90;;;;;;5009333;28;20211;-81
2022/01/25 01:07:15;;;;;;;55.30;30.57;;;5.50;99.90;;;;;;5011841;28;20205;-81
2022/01/25 01:09:46;;;;;;;61.27;31.73;;;5.50;99.90;;;;;;4986211;28;20192;-81
2022/01/25 01:12:20;;;;;;;63.53;31.70;;;5.50;99.90;;;;;;4987577;28;20207;-80
2022/01/25 01:48:11;;;;;;;61.53;32.80;;;5.70;99.90;;;;;;5006027;28;20246;-80
2022/01/25 01:50:38;;;;;;;58.43;31.33;;;5.70;99.90;;;;;;4992565;28;20194;-79
2022/01/25 01:53:06;;;;;;;62.90;32.90;;;5.70;99.90;;;;;;4990629;28;20196;-81
2022/01/25 01:55:32;;;;;;;62.13;32.20;;;5.70;99.90;;;;;;5003315;28;20242;-80
2022/01/25 01:57:58;;;;;;;63.87;32.63;;;5.70;99.90;;;;;;5006886;28;20218;-78
2022/01/25 02:00:38;;;;;;;66.87;34.30;;;5.70;99.90;;;;;;4990693;28;20196;-79
2022/01/25 02:03:04;;;;;;;61.77;32.90;;;5.70;99.90;;;;;;5001967;28;20242;-79
2022/01/25 02:05:31;;;;;;;64.43;33.37;;;5.70;99.90;;;;;;5009757;28;20890;-80
2022/01/25 02:07:57;;;;;;;62.63;31.93;;;5.70;99.90;;;;;;4991715;28;20209;-78
2022/01/25 02:10:23;;;;;;;63.00;31.97;;;5.70;99.90;;;;;;5008713;28;20187;-78
2022/01/25 02:12:51;;;;;;;70.97;34.10;;;5.70;99.90;;;;;;4985007;28;20307;-80
2022/01/25 02:15:18;;;;;;;64.30;32.57;;;5.70;99.90;;;;;;4988304;28;20657;-79
2022/01/25 02:23:24;;;;;;;67.03;32.97;;;5.60;99.90;;;;;;4995710;28;20623;-79
2022/01/25 02:25:53;;;;;;;63.77;32.53;;;5.60;99.90;;;;;;4990843;28;20195;-79
2022/01/25 02:28:21;;;;;;;69.47;33.27;;;5.60;99.90;;;;;;5008487;28;20232;-79
2022/01/25 02:30:48;;;;;;;70.27;34.80;;;5.70;99.90;;;;;;5006596;28;20671;-78
2022/01/25 02:33:14;;;;;;;62.37;31.67;;;5.60;99.90;;;;;;5007141;28;20195;-79
2022/01/25 02:35:43;;;;;;;67.17;33.37;;;5.60;99.90;;;;;;5008892;28;20188;-79
2022/01/25 02:38:08;;;;;;;70.37;34.60;;;5.60;99.90;;;;;;5007132;28;20182;-79
2022/01/25 02:40:35;;;;;;;73.67;36.33;;;5.60;99.90;;;;;;5008405;28;20183;-80
2022/01/25 02:43:01;;;;;;;67.30;34.57;;;5.60;99.90;;;;;;5006100;28;20643;-79
2022/01/25 02:45:35;;;;;;;73.43;35.03;;;5.60;99.90;;;;;;5008083;28;20206;-80
2022/01/25 02:50:49;;;;;;;66.77;32.93;;;5.50;99.90;;;;;;5008099;28;20207;-79
2022/01/25 02:53:15;;;;;;;71.90;35.47;;;5.50;99.90;;;;;;5008984;28;20189;-79
2022/01/25 02:55:41;;;;;;;68.43;35.37;;;5.60;99.90;;;;;;4992739;28;20198;-78
2022/01/25 02:58:08;;;;;;;64.00;32.73;;;5.60;99.90;;;;;;4985053;28;20207;-79
2022/01/25 03:00:34;;;;;;;68.97;35.00;;;5.60;99.90;;;;;;5024003;28;20187;-79
2022/01/25 03:03:00;;;;;;;72.37;35.67;;;5.70;99.90;;;;;;5009167;28;20610;-79
2022/01/25 03:05:27;;;;;;;69.10;35.10;;;5.70;99.90;;;;;;4992901;28;20215;-78
2022/01/25 03:07:54;;;;;;;68.67;34.20;;;5.70;99.90;;;;;;5007995;28;20192;-79
2022/01/25 03:10:20;;;;;;;73.60;34.27;;;5.80;99.90;;;;;;5010521;28;20180;-79
2022/01/25 03:12:51;;;;;;;73.63;36.07;;;5.70;99.90;;;;;;5009038;28;20237;-79
2022/01/25 03:17:49;;;;;;;70.33;35.83;;;5.70;99.90;;;;;;5007527;28;20845;-78
2022/01/25 03:20:20;;;;;;;68.17;34.23;;;5.70;99.90;;;;;;4993207;28;21001;-79
2022/01/25 03:25:26;;;;;;;70.83;35.40;;;5.80;99.90;;;;;;5008875;28;20211;-77
2022/01/25 03:27:52;;;;;;;74.30;34.43;;;5.80;99.90;;;;;;5008492;28;20219;-79
2022/01/25 03:30:18;;;;;;;75.03;36.73;;;5.80;99.90;;;;;;4994545;28;20737;-78
2022/01/25 03:32:44;;;;;;;66.00;33.17;;;5.80;99.90;;;;;;4986814;28;20196;-79
2022/01/25 03:35:09;;;;;;;72.73;34.47;;;5.80;99.90;;;;;;4991712;28;20631;-78
2022/01/25 03:37:35;;;;;;;72.30;35.13;;;5.80;99.90;;;;;;4992183;28;20196;-79
2022/01/25 03:40:01;;;;;;;67.97;34.37;;;5.80;99.90;;;;;;4987372;28;20294;-79
2022/01/25 03:42:26;;;;;;;71.50;34.10;;;5.80;99.90;;;;;;5003470;28;20218;-78
2022/01/25 03:44:52;;;;;;;71.27;35.33;;;5.80;99.90;;;;;;4992981;28;20306;-79
2022/01/25 03:47:21;;;;;;;77.90;36.70;;;5.80;99.90;;;;;;4989571;28;20278;-78
2022/01/25 03:49:49;;;;;;;73.27;34.37;;;5.70;99.90;;;;;;5001522;28;20206;-78
2022/01/25 03:52:19;;;;;;;73.40;35.40;;;5.70;99.90;;;;;;4992405;28;20213;-78
2022/01/25 03:54:44;;;;;;;79.70;36.87;;;5.70;99.90;;;;;;4987988;28;20658;-79
2022/01/25 03:57:10;;;;;;;72.20;35.73;;;5.80;99.90;;;;;;5008950;28;20215;-79
2022/01/25 03:59:36;;;;;;;71.70;34.93;;;5.70;99.90;;;;;;5008590;28;20199;-80
2022/01/25 04:02:02;;;;;;;77.97;35.33;;;5.70;99.90;;;;;;4993327;28;20279;-79
2022/01/25 04:04:29;;;;;;;74.43;35.07;;;5.70;99.90;;;;;;5010282;28;20215;-80
2022/01/25 04:06:55;;;;;;;73.50;34.97;;;5.70;99.90;;;;;;4991589;28;20192;-79
2022/01/25 04:09:21;;;;;;;73.57;36.00;;;5.70;99.90;;;;;;4997266;28;20275;-79
2022/01/25 04:11:47;;;;;;;72.77;35.10;;;5.70;99.90;;;;;;4998592;28;20195;-80
2022/01/25 04:14:13;;;;;;;74.13;34.47;;;5.70;99.90;;;;;;5013070;28;20278;-79
2022/01/25 04:16:52;;;;;;;68.70;33.63;;;5.60;99.90;;;;;;4992015;28;20199;-78
2022/01/25 04:19:41;;;;;;;71.00;33.00;;;5.70;99.90;;;;;;4993901;28;20198;-80
2022/01/25 04:25:03;;;;;;;77.70;36.33;;;5.70;99.90;;;;;;5009794;28;20216;-79
2022/01/25 04:27:28;;;;;;;73.23;34.57;;;5.70;99.90;;;;;;5010140;28;20219;-80
2022/01/25 04:29:54;;;;;;;71.03;33.53;;;5.70;99.90;;;;;;5010518;28;20195;-79
2022/01/25 04:32:31;;;;;;;77.07;36.13;;;5.70;99.90;;;;;;4995100;28;20198;-80
2022/01/25 04:35:10;;;;;;;78.83;36.10;;;5.70;99.90;;;;;;5010146;28;20194;-80
2022/01/25 04:51:39;;;;;;;77.20;35.63;;;5.80;99.90;;;;;;5011510;28;20202;-79
2022/01/25 04:59:50;;;;;;;73.40;33.27;;;5.90;99.90;;;;;;5010474;28;20763;-78
2022/01/25 05:01:57;;;;;;;74.40;36.27;;;5.80;99.90;;;;;;5000758;28;20626;-79
2022/01/25 05:04:28;;;;;;;79.70;36.37;;;5.80;99.90;;;;;;4994096;28;20254;-79
2022/01/25 05:06:58;;;;;;;76.80;35.50;;;5.90;99.90;;;;;;4994300;28;20192;-79
2022/01/25 05:09:24;;;;;;;76.43;36.07;;;5.90;99.90;;;;;;4994255;28;20199;-78
2022/01/25 05:11:50;;;;;;;79.70;36.53;;;5.80;99.90;;;;;;5010006;28;20196;-78
2022/01/25 05:16:58;;;;;;;77.00;35.83;;;5.80;99.90;;;;;;5009696;28;20296;-78
2022/01/25 05:22:20;;;;;;;81.23;36.43;;;5.90;99.90;;;;;;5008793;28;20210;-80
2022/01/25 05:24:48;;;;;;;79.23;36.53;;;5.90;99.90;;;;;;4978999;28;20211;-79
2022/01/25 05:27:16;;;;;;;82.03;36.33;;;5.90;99.90;;;;;;4991209;28;20227;-80
2022/01/25 05:29:42;;;;;;;82.97;35.90;;;5.90;99.90;;;;;;5010342;28;20191;-80
2022/01/25 05:32:07;;;;;;;80.70;36.90;;;5.90;99.90;;;;;;4992484;28;20211;-79
2022/01/25 05:34:33;;;;;;;76.93;35.73;;;5.80;99.90;;;;;;4982931;28;20234;-79
2022/01/25 05:36:59;;;;;;;77.30;36.10;;;5.80;99.90;;;;;;4992306;28;20673;-79
2022/01/25 05:39:30;;;;;;;80.17;37.57;;;5.80;99.90;;;;;;5008521;28;20219;-80
2022/01/25 05:42:00;;;;;;;75.90;35.90;;;5.80;99.90;;;;;;5006965;28;20282;-81
2022/01/25 05:44:40;;;;;;;77.27;35.90;;;5.80;99.90;;;;;;5003412;28;20298;-79
2022/01/25 05:47:08;;;;;;;84.43;38.00;;;5.90;99.90;;;;;;5009788;28;20277;-80
2022/01/25 05:49:38;;;;;;;83.27;37.33;;;6.00;99.90;;;;;;4992341;28;20240;-79
2022/01/25 05:52:06;;;;;;;77.43;37.10;;;5.90;99.90;;;;;;5011870;28;20197;-80
2022/01/25 05:54:31;;;;;;;81.33;37.67;;;5.90;99.90;;;;;;5009367;28;20584;-79
2022/01/25 05:56:57;;;;;;;76.70;35.73;;;5.80;99.90;;;;;;4992769;28;20222;-79
2022/01/25 05:59:23;;;;;;;73.53;35.10;;;5.80;99.90;;;;;;4993943;28;20196;-80
2022/01/25 06:01:49;;;;;;;79.27;35.17;;;5.80;99.90;;;;;;5008171;28;20265;-80
2022/01/25 06:04:15;;;;;;;75.57;35.80;;;5.80;99.90;;;;;;4976765;28;20230;-79
2022/01/25 06:06:41;;;;;;;73.73;33.77;;;5.80;99.90;;;;;;5008640;28;20302;-79
2022/01/25 06:09:06;;;;;;;78.87;35.33;;;5.80;99.90;;;;;;5008020;28;20199;-78
2022/01/25 06:11:34;;;;;;;78.60;37.23;;;5.90;99.90;;;;;;4986545;28;20191;-79
2022/01/25 06:14:01;;;;;;;81.53;37.53;;;5.80;99.90;;;;;;4989099;28;20288;-79
2022/01/25 06:16:29;;;;;;;78.03;36.30;;;5.80;99.90;;;;;;4975489;28;20215;-80
2022/01/25 06:18:55;;;;;;;83.40;35.83;;;5.80;99.90;;;;;;5009123;28;21383;-80
2022/01/25 06:21:21;;;;;;;80.73;36.03;;;5.80;99.90;;;;;;4990512;28;20539;-80
2022/01/25 06:23:47;;;;;;;83.30;37.80;;;5.90;99.90;;;;;;5006682;28;20222;-80
2022/01/25 06:26:13;;;;;;;79.97;36.90;;;5.80;99.90;;;;;;5008174;28;20198;-79
2022/01/25 06:28:38;;;;;;;80.90;36.23;;;5.70;99.90;;;;;;4975530;28;20200;-80
2022/01/25 06:31:04;;;;;;;87.97;37.13;;;5.70;99.90;;;;;;5008774;28;20193;-80
2022/01/25 06:33:30;;;;;;;77.97;36.63;;;5.60;99.90;;;;;;5011113;28;20211;-79
2022/01/25 06:35:56;;;;;;;84.63;36.87;;;5.70;99.90;;;;;;5009589;28;20631;-79
2022/01/25 06:38:22;;;;;;;81.53;37.20;;;5.70;99.90;;;;;;4992807;28;20197;-79
2022/01/25 06:40:48;;;;;;;88.57;38.70;;;5.70;99.90;;;;;;4973720;28;20184;-79
2022/01/25 06:43:13;;;;;;;90.80;38.67;;;5.80;99.90;;;;;;5002498;28;20263;-79
2022/01/25 06:45:41;;;;;;;80.53;36.87;;;5.70;99.90;;;;;;4997796;28;20218;-80
2022/01/25 06:48:07;;;;;;;83.10;37.70;;;5.70;99.90;;;;;;5007420;28;20717;-80
2022/01/25 06:50:34;;;;;;;82.77;37.80;;;5.70;99.90;;;;;;5009822;28;20187;-80
2022/01/25 06:53:00;;;;;;;86.60;37.53;;;5.70;99.90;;;;;;5009998;28;20238;-80
2022/01/25 06:55:25;;;;;;;83.87;36.20;;;5.70;99.90;;;;;;5002980;28;20205;-79
2022/01/25 06:57:51;;;;;;;91.33;38.40;;;5.80;99.90;;;;;;4993665;28;20234;-80
2022/01/25 07:00:21;;;;;;;83.83;37.27;;;5.80;99.90;;;;;;5006884;28;20191;-80
2022/01/25 07:02:47;;;;;;;83.63;37.67;;;5.90;99.90;;;;;;5007599;28;20207;-79
2022/01/25 07:05:13;;;;;;;91.13;40.10;;;5.90;99.90;;;;;;5007801;28;20203;-80
2022/01/25 07:07:39;;;;;;;85.93;38.53;;;5.80;99.90;;;;;;4988144;28;20240;-80
2022/01/25 07:10:07;;;;;;;89.27;38.93;;;5.80;99.90;;;;;;5009634;28;20198;-79
2022/01/25 07:12:33;;;;;;;89.00;38.70;;;5.90;99.90;;;;;;5007188;28;20207;-82
2022/01/25 07:14:59;;;;;;;85.20;38.83;;;5.90;99.90;;;;;;5018761;28;20259;-80
2022/01/25 07:17:25;;;;;;;82.10;37.70;;;5.80;99.90;;;;;;5008274;28;20700;-80
2022/01/25 07:19:51;;;;;;;84.90;37.67;;;5.80;99.90;;;;;;5005125;28;20208;-80
2022/01/25 07:22:17;;;;;;;78.27;37.00;;;5.70;99.90;;;;;;5006205;28;20283;-80
2022/01/25 07:24:43;;;;;;;84.97;37.57;;;5.60;99.90;;;;;;5009513;28;20211;-78
2022/01/25 07:27:09;;;;;;;81.37;35.20;;;5.60;99.90;;;;;;5008002;28;20282;-81
2022/01/25 07:29:35;;;;;;;84.10;36.47;;;5.70;99.90;;;;;;5006164;28;20290;-80
2022/01/25 07:32:02;;;;;;;85.67;38.03;;;5.70;99.90;;;;;;4990462;28;20291;-80
2022/01/25 07:34:28;;;;;;;87.70;38.80;;;5.70;99.90;;;;;;4971232;28;20195;-79
2022/01/25 07:36:54;;;;;;;83.77;37.13;;;5.70;99.90;;;;;;4971167;28;20760;-78
2022/01/25 07:39:20;;;;;;;83.47;37.53;;;5.70;99.90;;;;;;5010260;28;20191;-79
2022/01/25 07:41:46;;;;;;;86.80;38.67;;;5.80;99.90;;;;;;5007089;28;20317;-79
2022/01/25 07:44:13;;;;;;;88.90;38.83;;;5.80;99.90;;;;;;5008063;28;20207;-80
2022/01/25 07:46:40;;;;;;;88.80;37.30;;;5.90;99.90;;;;;;5013019;28;20188;-80
2022/01/25 07:49:06;;;;;;;89.00;39.00;;;5.90;99.90;;;;;;5004492;28;20527;-79
2022/01/25 07:51:35;;;;;;;87.10;37.67;;;5.90;99.90;;;;;;4993090;28;20245;-78
2022/01/25 07:54:01;;;;;;;92.10;38.57;;;5.90;99.90;;;;;;4974893;28;20192;-79
2022/01/25 07:56:27;;;;;;;86.40;38.63;;;5.90;99.90;;;;;;5011045;28;20195;-80
2022/01/25 07:58:54;;;;;;;87.70;38.43;;;5.90;99.90;;;;;;5009715;28;20210;-80
2022/01/25 08:01:21;;;;;;;88.77;41.10;;;5.90;99.90;;;;;;4995337;28;20260;-79
2022/01/25 08:03:47;;;;;;;83.20;37.33;;;6.00;99.90;;;;;;5026826;28;20303;-79
2022/01/25 08:06:13;;;;;;;86.67;37.63;;;6.00;99.90;;;;;;4993825;28;20667;-79
2022/01/25 08:08:40;;;;;;;84.57;38.20;;;5.90;99.90;;;;;;5008895;28;20339;-79
2022/01/25 08:11:06;;;;;;;82.70;36.43;;;5.90;99.90;;;;;;5001963;28;20188;-79
2022/01/25 08:13:31;;;;;;;89.50;38.20;;;5.90;99.90;;;;;;5007648;28;20792;-79
2022/01/25 08:15:57;;;;;;;88.63;38.40;;;5.90;99.90;;;;;;4992107;28;20218;-79
2022/01/25 08:18:23;;;;;;;86.63;38.00;;;5.90;99.90;;;;;;4985971;28;20340;-80
2022/01/25 08:20:48;;;;;;;88.10;38.67;;;5.90;99.90;;;;;;5011164;28;20207;-79
2022/01/25 08:23:14;;;;;;;82.60;37.57;;;5.90;99.90;;;;;;5009453;28;20195;-80
2022/01/25 08:25:40;;;;;;;92.53;38.23;;;5.90;99.90;;;;;;4993276;28;20227;-79
2022/01/25 08:28:06;;;;;;;84.60;37.33;;;6.00;99.90;;;;;;4995369;28;20211;-79
2022/01/25 08:30:32;;;;;;;82.57;36.17;;;6.00;99.90;;;;;;5002870;28;20278;-78
2022/01/25 08:32:58;;;;;;;88.37;38.33;;;6.10;99.90;;;;;;4987820;28;20614;-78
2022/01/25 08:35:24;;;;;;;84.63;36.63;;;6.10;99.90;;;;;;5011756;28;20252;-79
2022/01/25 08:37:50;;;;;;;88.90;39.57;;;6.10;99.90;;;;;;5010983;28;20212;-79
2022/01/25 08:40:16;;;;;;;86.50;38.57;;;6.20;99.90;;;;;;4989544;28;20219;-80
2022/01/25 08:42:42;;;;;;;90.30;38.43;;;6.10;99.90;;;;;;5004951;28;20737;-79
2022/01/25 08:45:09;;;;;;;94.13;39.00;;;6.10;99.90;;;;;;5011304;28;20377;-79
2022/01/25 08:47:36;;;;;;;83.27;38.63;;;6.10;99.90;;;;;;5009003;28;20236;-79
2022/01/25 08:50:03;;;;;;;84.47;36.87;;;6.10;99.90;;;;;;4993132;28;20251;-78
2022/01/25 08:52:28;;;;;;;85.30;37.27;;;6.00;99.90;;;;;;5010289;28;20195;-79
2022/01/25 08:54:54;;;;;;;86.13;38.03;;;6.00;99.90;;;;;;5006980;28;20188;-79
2022/01/25 08:57:20;;;;;;;86.10;38.63;;;6.10;99.90;;;;;;4991386;28;20319;-79
2022/01/25 08:59:46;;;;;;;90.00;39.50;;;6.10;99.90;;;;;;4987895;28;20195;-79
2022/01/25 09:02:11;;;;;;;88.03;38.20;;;6.20;99.90;;;;;;4992508;28;20203;-79
2022/01/25 09:04:37;;;;;;;86.63;38.60;;;6.20;99.90;;;;;;4988892;28;20656;-78
2022/01/25 09:07:03;;;;;;;83.43;38.17;;;6.30;99.90;;;;;;5009666;28;20187;-78
2022/01/25 09:09:29;;;;;;;84.83;37.63;;;6.30;99.90;;;;;;4972423;28;20669;-79
2022/01/25 09:11:56;;;;;;;85.30;37.30;;;6.30;99.90;;;;;;4986918;28;20213;-79
2022/01/25 09:14:23;;;;;;;84.97;37.23;;;6.30;99.90;;;;;;5009033;28;20187;-78
2022/01/25 09:16:49;;;;;;;85.50;38.83;;;6.20;99.90;;;;;;4989839;28;20219;-79
2022/01/25 09:19:15;;;;;;;89.50;39.13;;;6.30;99.90;;;;;;4988005;28;20230;-79
2022/01/25 09:21:41;;;;;;;83.03;36.67;;;6.30;99.90;;;;;;4973114;28;20189;-79
2022/01/25 09:24:07;;;;;;;81.80;36.43;;;6.30;99.90;;;;;;5009597;28;20731;-79
2022/01/25 09:26:32;;;;;;;82.87;37.40;;;6.30;99.90;;;;;;5009619;28;20184;-79
2022/01/25 09:28:58;;;;;;;81.53;37.23;;;6.30;99.90;;;;;;4994242;28;20208;-79
2022/01/25 09:31:24;;;;;;;87.43;37.40;;;6.40;99.90;;;;;;5009311;28;20203;-79
2022/01/25 09:33:51;;;;;;;78.80;36.27;;;6.40;99.90;;;;;;5008421;28;20180;-79
2022/01/25 09:36:16;;;;;;;85.90;38.43;;;6.40;99.90;;;;;;4992069;28;20192;-79
2022/01/25 09:38:42;;;;;;;86.03;37.97;;;6.40;99.90;;;;;;5007776;28;20283;-78
2022/01/25 09:41:08;;;;;;;83.73;38.57;;;6.40;99.90;;;;;;5008496;28;20195;-77
2022/01/25 09:43:34;;;;;;;88.40;39.17;;;6.40;99.90;;;;;;5007051;28;21012;-80
2022/01/25 09:46:00;;;;;;;85.97;38.40;;;6.40;99.90;;;;;;4987026;28;20195;-79
2022/01/25 09:48:25;;;;;;;85.20;38.90;;;6.40;99.90;;;;;;5006240;28;20259;-79
2022/01/25 09:50:52;;;;;;;82.40;38.30;;;6.50;99.90;;;;;;5008230;28;20253;-79
2022/01/25 09:53:17;;;;;;;85.70;39.90;;;6.50;99.90;;;;;;5006640;28;20759;-79
2022/01/25 09:55:44;;;;;;;88.67;39.10;;;6.40;99.90;;;;;;4992573;28;20187;-80
2022/01/25 09:58:12;;;;;;;85.13;37.63;;;6.40;99.90;;;;;;5006026;28;20701;-79
2022/01/25 10:00:39;;;;;;;82.13;37.37;;;6.40;99.90;;;;;;4990508;28;20191;-78
2022/01/25 10:03:21;;;;;;;84.13;37.50;;;6.40;99.90;;;;;;5007733;28;20268;-79
2022/01/25 10:05:49;;;;;;;84.67;37.17;;;6.50;99.90;;;;;;5003994;28;20226;-80
2022/01/25 10:08:36;;;;;;;87.20;38.67;;;6.40;99.90;;;;;;5012011;28;20187;-79
2022/01/25 10:11:04;;;;;;;90.53;38.43;;;6.40;99.90;;;;;;5009109;28;20278;-79
2022/01/25 10:13:42;;;;;;;84.90;38.37;;;6.40;99.90;;;;;;5007723;28;20208;-79
2022/01/25 10:16:31;;;;;;;90.53;36.70;;;6.40;99.90;;;;;;5007142;28;20188;-79
2022/01/25 10:18:59;;;;;;;82.60;36.37;;;6.40;99.90;;;;;;5008921;28;20206;-79
2022/01/25 10:21:35;;;;;;;89.47;39.20;;;6.50;99.90;;;;;;5021427;28;20298;-79
2022/01/25 10:24:11;;;;;;;85.57;36.77;;;6.50;99.90;;;;;;5001375;28;20246;-81
2022/01/25 10:26:54;;;;;;;88.47;38.27;;;6.60;99.90;;;;;;5010712;28;20217;-80
2022/01/25 10:29:26;;;;;;;87.30;37.13;;;6.60;99.90;;;;;;5004008;28;20246;-79
2022/01/25 10:32:04;;;;;;;88.23;39.03;;;6.60;99.90;;;;;;5005655;28;20180;-79
2022/01/25 10:34:37;;;;;;;84.90;37.10;;;6.70;99.90;;;;;;5006046;28;20270;-80
2022/01/25 10:37:11;;;;;;;89.93;38.57;;;6.70;99.90;;;;;;5005446;28;20570;-79
2022/01/25 10:39:42;;;;;;;87.07;38.23;;;6.70;99.90;;;;;;4985331;28;20295;-79
2022/01/25 10:42:26;;;;;;;87.73;39.33;;;6.70;99.90;;;;;;5003771;28;20237;-80
2022/01/25 10:44:54;;;;;;;86.27;38.67;;;6.70;99.90;;;;;;5005218;28;20207;-79
2022/01/25 10:47:42;;;;;;;86.20;38.10;;;6.70;99.90;;;;;;5006479;28;20285;-79
2022/01/25 10:50:14;;;;;;;84.30;37.70;;;6.60;99.90;;;;;;5003368;28;20222;-78
2022/01/25 10:52:39;;;;;;;83.93;37.50;;;6.60;99.90;;;;;;5005248;28;20306;-77
2022/01/25 10:55:06;;;;;;;87.00;37.83;;;6.60;99.90;;;;;;4967668;28;20199;-79
2022/01/25 10:57:32;;;;;;;81.57;36.53;;;6.50;99.90;;;;;;5008283;28;20246;-80
2022/01/25 11:00:00;;;;;;;83.93;36.47;;;6.50;99.90;;;;;;5006104;28;20251;-80
2022/01/25 11:02:27;;;;;;;85.50;37.90;;;6.50;99.90;;;;;;4983057;28;20665;-78
2022/01/25 11:05:07;;;;;;;82.17;36.80;;;6.60;99.90;;;;;;4975684;28;20234;-80
2022/01/25 11:07:38;;;;;;;88.37;37.47;;;6.50;99.90;;;;;;4989438;28;20210;-79
2022/01/25 11:10:05;;;;;;;87.80;38.30;;;6.50;99.90;;;;;;5006579;28;20230;-79
2022/01/25 11:12:37;;;;;;;91.10;38.80;;;6.50;99.90;;;;;;4967643;28;20334;-80
2022/01/25 11:15:04;;;;;;;84.50;37.23;;;6.60;99.90;;;;;;4989491;28;20203;-78
2022/01/25 11:17:31;;;;;;;80.00;36.17;;;6.60;99.90;;;;;;5005998;28;20249;-78
2022/01/25 11:19:58;;;;;;;90.40;39.00;;;6.50;99.90;;;;;;5008627;28;20199;-80
2022/01/25 11:22:25;;;;;;;84.70;37.60;;;6.50;99.90;;;;;;4992021;28;20561;-80
2022/01/25 11:24:57;;;;;;;83.97;37.20;;;6.60;99.90;;;;;;5010104;28;20215;-79
2022/01/25 11:27:25;;;;;;;93.60;38.50;;;6.60;99.90;;;;;;5004012;28;20345;-79
2022/01/25 11:29:54;;;;;;;93.03;38.57;;;6.70;99.90;;;;;;5007058;28;20192;-79
2022/01/25 11:32:24;;;;;;;82.13;36.40;;;6.70;99.90;;;;;;5010510;28;20634;-80
2022/01/25 11:34:51;;;;;;;89.13;38.33;;;6.70;99.90;;;;;;5007802;28;20231;-80
2022/01/25 11:37:17;;;;;;;88.00;39.23;;;6.70;99.90;;;;;;5006972;28;20200;-80
2022/01/25 11:39:49;;;;;;;88.33;37.87;;;6.80;99.90;;;;;;5007783;28;20679;-80
2022/01/25 11:42:17;;;;;;;83.10;37.50;;;6.80;99.90;;;;;;5009428;28;20215;-80
2022/01/25 11:44:57;;;;;;;86.23;37.70;;;6.80;99.90;;;;;;5006579;28;20208;-80
2022/01/25 11:47:47;;;;;;;87.00;37.90;;;6.90;99.90;;;;;;4993776;28;20709;-79
2022/01/25 11:50:12;;;;;;;79.60;35.60;;;7.00;99.90;;;;;;5010706;28;20196;-78
2022/01/25 11:52:53;;;;;;;86.77;37.03;;;7.00;99.90;;;;;;5009203;28;20385;-78
2022/01/25 11:55:30;;;;;;;85.83;38.07;;;6.90;99.90;;;;;;5010226;28;20198;-79
2022/01/25 11:58:05;;;;;;;79.53;35.93;;;6.90;99.90;;;;;;5000806;28;20195;-81
2022/01/25 12:00:39;;;;;;;83.67;36.37;;;6.90;99.90;;;;;;5010320;28;20512;-80
2022/01/25 12:03:40;;;;;;;90.27;37.23;;;6.90;99.90;;;;;;5004451;28;20192;-79
2022/01/25 12:06:24;;;;;;;82.27;36.57;;;6.90;99.90;;;;;;5001594;28;20209;-80
2022/01/25 12:09:06;;;;;;;80.33;36.07;;;6.90;99.90;;;;;;5010000;28;20183;-80
2022/01/25 12:11:47;;;;;;;79.23;34.80;;;6.80;99.90;;;;;;5011689;28;20210;-80
2022/01/25 12:14:28;;;;;;;83.97;36.30;;;6.70;99.90;;;;;;5002348;28;20192;-78
2022/01/25 12:17:01;;;;;;;80.23;36.53;;;6.60;99.90;;;;;;5010411;28;20273;-79
2022/01/25 12:19:51;;;;;;;82.43;36.40;;;6.60;99.90;;;;;;5002350;28;20199;-80
2022/01/25 12:25:34;;;;;;;86.93;35.83;;;6.70;99.90;;;;;;5011401;28;20226;-78
2022/01/25 12:28:08;;;;;;;90.03;36.70;;;6.70;99.90;;;;;;5010707;28;20194;-79
2022/01/25 12:30:34;;;;;;;84.93;35.97;;;6.80;99.90;;;;;;4971205;28;20192;-80
2022/01/25 12:33:07;;;;;;;83.97;36.07;;;6.80;99.90;;;;;;5011006;28;20202;-79
2022/01/25 12:35:57;;;;;;;84.20;36.10;;;6.90;99.90;;;;;;5007724;28;20195;-80
2022/01/25 12:38:37;;;;;;;85.57;36.70;;;6.90;99.90;;;;;;5007866;28;20191;-79
2022/01/25 12:41:20;;;;;;;80.90;35.60;;;6.90;99.90;;;;;;5009730;28;20187;-79
2022/01/25 12:43:56;;;;;;;82.03;35.90;;;6.90;99.90;;;;;;4985257;28;20215;-80
2022/01/25 12:46:35;;;;;;;83.27;37.50;;;6.90;99.90;;;;;;5010072;28;20179;-80
2022/01/25 12:49:11;;;;;;;80.87;36.57;;;6.80;99.90;;;;;;5007110;28;20227;-80
2022/01/25 12:51:39;;;;;;;88.93;36.73;;;6.70;99.90;;;;;;5011832;28;20218;-78
2022/01/25 12:54:08;;;;;;;86.53;36.37;;;6.80;99.90;;;;;;4987671;28;20203;-81
2022/01/25 12:56:46;;;;;;;82.40;35.90;;;6.80;99.90;;;;;;5008655;28;20219;-80
2022/01/25 12:59:18;;;;;;;91.07;38.53;;;6.90;99.90;;;;;;5007931;28;20211;-80
2022/01/25 13:01:45;;;;;;;93.97;39.70;;;6.90;99.90;;;;;;5007826;28;20254;-80
2022/01/25 13:04:12;;;;;;;85.47;37.77;;;6.90;99.90;;;;;;5007608;28;20211;-80
2022/01/25 13:06:52;;;;;;;84.13;37.77;;;6.80;99.90;;;;;;5005362;28;20192;-80
2022/01/25 13:09:25;;;;;;;79.13;35.63;;;6.80;99.90;;;;;;5007962;28;20192;-80
2022/01/25 13:17:15;;;;;;;82.47;36.77;;;6.90;99.90;;;;;;5008586;28;20253;-80
2022/01/25 13:19:59;;;;;;;89.37;38.03;;;6.90;99.90;;;;;;5009133;28;20739;-79
2022/01/25 13:22:31;;;;;;;91.53;39.20;;;6.80;99.90;;;;;;5007593;28;20183;-79
2022/01/25 13:25:13;;;;;;;91.77;39.07;;;6.80;99.90;;;;;;4992870;28;20674;-78
2022/01/25 13:27:50;;;;;;;89.33;38.37;;;6.80;99.90;;;;;;5009104;28;20582;-78
2022/01/25 13:33:04;;;;;;;95.13;39.37;;;7.00;99.90;;;;;;5009976;28;20199;-80
2022/01/25 13:35:34;;;;;;;93.77;40.63;;;7.00;99.90;;;;;;5009252;28;20293;-78
2022/01/25 13:38:13;;;;;;;90.27;38.97;;;7.00;99.90;;;;;;5007574;28;20195;-79
2022/01/25 13:41:01;;;;;;;99.37;41.63;;;7.00;99.90;;;;;;5006012;28;20239;-80
2022/01/25 13:46:07;;;;;;;92.57;40.63;;;6.90;99.90;;;;;;5005239;28;20274;-79
2022/01/25 13:48:35;;;;;;;97.20;40.40;;;6.90;99.90;;;;;;5006461;28;20234;-80
2022/01/25 13:51:07;;;;;;;94.90;40.33;;;6.90;99.90;;;;;;5008401;28;20234;-78
2022/01/25 13:53:36;;;;;;;101.33;42.80;;;6.90;99.90;;;;;;5001928;28;20385;-79
2022/01/25 13:56:04;;;;;;;92.27;40.57;;;6.90;99.90;;;;;;4983917;28;20290;-78
2022/01/25 13:58:36;;;;;;;91.73;38.53;;;6.80;99.90;;;;;;5005219;28;20211;-80
2022/01/25 14:01:06;;;;;;;97.00;39.60;;;6.70;99.90;;;;;;5024236;28;20213;-80
2022/01/25 14:03:41;;;;;;;94.83;40.13;;;6.70;99.90;;;;;;5009271;28;20183;-79
2022/01/25 14:06:27;;;;;;;95.53;40.70;;;6.80;99.90;;;;;;5007228;28;20188;-78
2022/01/25 14:09:00;;;;;;;103.43;42.20;;;6.80;99.90;;;;;;5004834;28;20240;-78
2022/01/25 14:22:56;;;;;;;99.13;40.80;;;6.90;99.90;;;;;;5005185;28;20692;-80
2022/01/25 14:25:34;;;;;;;94.83;39.93;;;6.90;99.90;;;;;;5005172;28;20306;-79
2022/01/25 14:28:03;;;;;;;91.80;40.17;;;6.90;99.90;;;;;;5006905;28;20287;-79
2022/01/25 14:30:37;;;;;;;101.73;42.67;;;6.80;99.90;;;;;;5008003;28;20184;-79
2022/01/25 14:33:14;;;;;;;102.90;42.60;;;6.80;99.90;;;;;;5014932;28;20175;-80
2022/01/25 14:35:56;;;;;;;98.00;39.90;;;6.80;99.90;;;;;;5005737;28;20195;-80
2022/01/25 14:38:25;;;;;;;95.67;40.43;;;6.80;99.90;;;;;;5009067;28;20233;-79
2022/01/25 14:41:01;;;;;;;98.37;39.90;;;6.80;99.90;;;;;;5016603;28;20184;-80
2022/01/25 14:43:32;;;;;;;95.50;40.27;;;6.70;99.90;;;;;;5004889;28;20203;-79
2022/01/25 14:46:30;;;;;;;98.53;41.30;;;6.70;99.90;;;;;;5003764;28;20226;-80
2022/01/25 14:49:16;;;;;;;100.20;41.63;;;6.60;99.90;;;;;;4992369;28;20270;-78
2022/01/25 14:51:46;;;;;;;101.43;40.63;;;6.60;99.90;;;;;;5023589;28;20192;-79
2022/01/25 14:54:17;;;;;;;102.27;42.37;;;6.60;99.90;;;;;;5005422;28;20306;-80